Latest Weather Observations for Jacup

IDW60801

Issued at 5:32 pm WST Saturday 1 August 2015 (issued every 30 minutes, with the page automatically refreshed every 10 minutes)

About weather observations | Map of weather stations | Latest weather observations for WA | Other Formats
Station Details ID: 010905 Name: JACUP Lat: -33.89 Lon: 119.11 Height: 305.0 m
Data from the previous 72 hours. | See also: Recent months at Jacup
Date/Time
WST
Temp
°C
App
Temp
°C
Dew
Point
Rel
Hum
%
Delta-T
°C
Wind Press
QNH
hPa
Press
MSL
hPa
Rain
since 9 am
mm
Dir
 
Spd
km/h
Gust
km/h
Spd
kts
Gust
kts
01/05:30pm 9.5 6.3 3.0 64 2.8 SE 9 15 5 8 1027.6 1027.8 0.0
01/05:00pm 10.3 5.8 2.4 58 3.4 S 15 24 8 13 1027.3 1027.5 0.0
01/04:30pm 10.2 5.8 2.6 59 3.3 S 15 24 8 13 1027.0 1027.2 0.0
01/04:00pm 10.7 7.3 4.2 64 2.9 SSE 11 20 6 11 1026.7 1026.9 0.0
01/03:30pm 9.8 5.5 5.4 74 2.0 SE 17 22 9 12 1026.5 1026.6 0.0
01/03:00pm 10.4 5.5 5.0 69 2.5 SE 20 28 11 15 1026.1 1026.2 0.0
01/02:30pm 11.4 6.6 4.6 63 3.1 SSE 19 28 10 15 1025.7 1025.8 0.0
01/02:00pm 11.9 7.4 4.2 59 3.5 SE 17 30 9 16 1025.3 1025.4 0.0
01/01:30pm 11.5 7.3 4.0 60 3.4 SE 15 26 8 14 1025.2 1025.3 0.0
01/01:00pm 11.2 5.7 4.0 61 3.2 SSE 22 35 12 19 1025.1 1025.2 0.0
01/12:30pm 11.2 6.4 5.5 68 2.7 SSE 20 30 11 16 1025.3 1025.4 0.0
01/12:00pm 11.2 6.4 4.9 65 2.9 SE 19 26 10 14 1025.6 1025.7 0.0
01/11:30am 11.5 6.0 4.0 60 3.4 SE 22 32 12 17 1025.5 1025.6 0.0
01/11:00am 11.4 5.9 3.9 60 3.4 SE 22 33 12 18 1025.6 1025.7 0.0
01/10:30am 11.3 5.1 4.3 62 3.2 SE 26 43 14 23 1025.5 1025.6 0.0
01/10:00am 10.7 4.7 3.5 61 3.2 SSE 24 39 13 21 1025.1 1025.2 0.0
01/09:30am 9.6 4.1 4.2 69 2.4 SSE 22 35 12 19 1024.8 1024.9 0.0
01/09:00am 9.7 4.3 4.7 71 2.3 SE 22 32 12 17 1024.2 1024.4 12.2
01/08:30am 9.0 4.2 4.6 74 2.0 SSE 19 28 10 15 1023.8 1023.9 12.2
01/08:00am 8.8 4.5 5.2 78 1.6 SSE 17 24 9 13 1023.3 1023.4 12.2
01/07:30am 8.5 3.9 5.4 81 1.4 SSE 19 26 10 14 1022.9 1023.1 12.2
01/07:00am 8.6 4.3 5.4 80 1.5 SSE 17 26 9 14 1022.6 1022.8 12.2
01/06:30am 8.8 4.1 5.2 78 1.6 SSE 19 28 10 15 1022.2 1022.4 12.2
01/06:00am 8.9 4.4 6.0 82 1.3 SE 19 28 10 15 1021.7 1021.9 12.2
01/05:30am 9.0 4.9 6.3 83 1.3 SE 17 24 9 13 1021.3 1021.5 12.2
01/05:00am 8.9 4.6 6.9 87 0.9 SE 19 24 10 13 1020.9 1021.0 12.2
01/04:30am 9.1 4.8 7.1 87 1.0 SE 19 28 10 15 1020.4 1020.6 12.2
01/04:00am 8.9 4.6 7.2 89 0.8 SE 19 28 10 15 1020.1 1020.3 12.2
01/03:30am 9.1 4.7 7.4 89 0.8 SSE 20 33 11 18 1019.9 1020.1 12.2
01/03:00am 9.0 5.9 7.3 89 0.8 SSE 13 17 7 9 1019.8 1020.0 12.2
01/02:30am 9.1 5.0 7.7 91 0.7 SE 19 28 10 15 1019.6 1019.8 12.2
01/02:00am 9.3 5.3 8.1 92 0.6 SE 19 26 10 14 1019.6 1019.8 12.2
01/01:30am 9.3 5.6 7.9 91 0.7 SE 17 26 9 14 1019.4 1019.6 12.2
01/01:00am 9.6 5.2 7.5 87 1.0 SE 20 28 11 15 1019.3 1019.5 12.2
01/12:30am 9.7 5.4 7.8 88 0.9 SE 20 26 11 14 1019.3 1019.5 12.2
01/12:00am 9.7 5.6 8.0 89 0.8 SE 19 28 10 15 1019.3 1019.5 12.2
 
Date/Time
WST
Temp
°C
App
Temp
°C
Dew
Point
Rel
Hum
%
Delta-T
°C
Wind Press
QNH
hPa
Press
MSL
hPa
Rain
since 9 am
mm
Dir
 
Spd
km/h
Gust
km/h
Spd
kts
Gust
kts
31/11:30pm 9.7 5.4 7.8 88 0.9 SE 20 28 11 15 1019.2 1019.4 12.0
31/11:00pm 9.7 5.4 7.8 88 0.9 SE 20 28 11 15 1018.9 1019.1 12.0
31/10:30pm 9.7 4.7 8.0 89 0.8 SE 24 32 13 17 1018.4 1018.6 12.0
31/10:00pm 9.6 4.6 8.0 90 0.8 SE 24 32 13 17 1018.3 1018.4 12.0
31/09:30pm 9.6 4.6 8.2 91 0.7 SE 24 35 13 19 1018.0 1018.1 12.0
31/09:00pm 9.6 4.7 8.4 92 0.6 SE 24 35 13 19 1018.0 1018.1 12.0
31/08:30pm 9.6 4.8 8.7 94 0.4 SE 24 35 13 19 1017.6 1017.7 12.0
31/08:00pm 9.5 3.6 8.9 96 0.3 ESE 30 50 16 27 1017.1 1017.3 12.0
31/07:32pm 9.9 3.1 9.3 96 0.3 ESE 35 54 19 29 1016.3 1016.5 11.8
31/07:30pm 9.9 3.5 9.4 97 0.3 ESE 33 48 18 26 1016.7 1016.9 11.8
31/07:00pm 10.1 5.1 9.6 97 0.3 ESE 26 35 14 19 1017.5 1017.6 11.4
31/06:30pm 10.1 4.0 9.6 97 0.3 SE 32 48 17 26 1016.2 1016.4 11.0
31/06:24pm 10.3 5.0 9.8 97 0.3 SE 28 48 15 26 1016.0 1016.2 11.0
31/06:00pm 10.4 5.1 9.9 97 0.3 SE 28 39 15 21 1016.0 1016.2 10.6
31/05:30pm 10.5 5.2 10.0 97 0.3 SE 28 44 15 24 1015.4 1015.5 9.8
31/05:28pm 10.6 5.4 10.1 97 0.3 SE 28 46 15 25 1015.4 1015.5 9.8
31/05:00pm 10.9 6.9 10.4 97 0.3 SE 22 32 12 17 1015.7 1015.9 9.4
31/04:30pm 10.9 5.4 10.4 97 0.3 SE 30 44 16 24 1014.5 1014.6 9.0
31/04:00pm 11.4 6.7 10.8 96 0.3 ESE 26 35 14 19 1014.7 1014.8 8.0
31/03:30pm 11.5 6.5 10.9 96 0.3 ESE 28 39 15 21 1014.8 1014.9 7.0
31/03:00pm 11.9 7.4 11.3 96 0.3 SE 26 35 14 19 1014.4 1014.5 6.0
31/02:30pm 12.3 7.5 11.7 96 0.3 SE 28 43 15 23 1013.3 1013.5 5.6
31/02:00pm 12.3 8.3 11.7 96 0.3 ESE 24 33 13 18 1013.8 1014.0 5.2
31/01:30pm 11.6 6.2 11.0 96 0.3 ESE 30 43 16 23 1013.7 1013.9 4.8
31/01:00pm 11.8 6.9 11.3 97 0.3 ESE 28 43 15 23 1014.1 1014.2 4.6
31/12:30pm 12.2 8.9 11.6 96 0.3 ESE 20 32 11 17 1014.7 1014.8 4.2
31/12:00pm 12.3 8.3 11.7 96 0.3 SE 24 33 13 18 1015.1 1015.2 3.8
31/11:30am 12.5 8.5 11.9 96 0.3 SE 24 32 13 17 1015.1 1015.2 3.6
31/11:00am 12.9 8.7 12.3 96 0.3 SE 26 35 14 19 1015.0 1015.1 1.2
31/10:30am 13.5 11.9 12.7 95 0.4 S 13 20 7 11 1014.9 1015.0 1.0
31/10:00am 13.4 11.4 12.6 95 0.4 SW 15 22 8 12 1015.5 1015.6 0.8
31/09:30am 12.9 10.3 12.0 94 0.5 W 17 24 9 13 1015.3 1015.4 0.4
31/09:00am 12.7 10.4 11.6 93 0.6 WNW 15 20 8 11 1014.5 1014.6 9.2
31/08:30am 12.9 8.5 11.6 92 0.7 NW 26 39 14 21 1014.5 1014.6 8.8
31/08:00am 12.9 9.8 12.1 95 0.4 NW 20 28 11 15 1014.3 1014.4 7.2
31/07:30am 12.8 10.6 12.2 96 0.3 WNW 15 24 8 13 1014.1 1014.2 6.4
31/07:00am 12.6 10.7 11.8 95 0.4 NW 13 17 7 9 1013.8 1014.0 5.0
31/06:30am 12.6 11.1 11.8 95 0.4 NW 11 13 6 7 1013.7 1013.9 5.0
31/06:00am 12.9 11.1 12.1 95 0.4 WSW 13 20 7 11 1014.2 1014.3 4.8
31/05:30am 13.3 12.4 12.7 96 0.3 WSW 9 15 5 8 1014.5 1014.6 4.0
31/05:00am 13.3 12.4 12.5 95 0.4 WNW 9 11 5 6 1014.5 1014.6 2.6
31/04:30am 13.4 12.1 12.6 95 0.4 W 11 17 6 9 1014.2 1014.3 2.4
31/04:00am 13.5 11.5 12.6 94 0.5 W 15 20 8 11 1014.4 1014.5 1.4
31/03:30am 13.6 11.9 12.5 93 0.6 WNW 13 20 7 11 1014.3 1014.4 1.0
31/03:00am 13.8 11.7 12.5 92 0.7 WNW 15 26 8 14 1014.3 1014.4 1.0
31/02:30am 13.8 11.0 12.7 93 0.6 NW 19 28 10 15 1014.3 1014.4 1.0
31/02:00am 13.8 11.1 12.9 94 0.5 NNW 19 28 10 15 1013.5 1013.7 1.0
31/01:30am 14.0 11.2 13.1 94 0.5 NNW 20 30 11 16 1013.7 1013.9 1.0
31/01:00am 14.2 11.4 13.2 94 0.6 NNW 20 28 11 15 1014.3 1014.4 1.0
31/12:30am 14.5 12.0 13.5 94 0.6 NNW 19 32 10 17 1015.1 1015.2 1.0
31/12:00am 14.7 12.7 13.9 95 0.5 NNW 17 28 9 15 1015.7 1015.9 1.0
 
Date/Time
WST
Temp
°C
App
Temp
°C
Dew
Point
Rel
Hum
%
Delta-T
°C
Wind Press
QNH
hPa
Press
MSL
hPa
Rain
since 9 am
mm
Dir
 
Spd
km/h
Gust
km/h
Spd
kts
Gust
kts
30/11:30pm 14.5 12.9 13.9 96 0.3 NNW 15 22 8 12 1016.1 1016.3 1.0
30/11:00pm 14.3 13.0 13.7 96 0.3 N 13 15 7 8 1016.4 1016.6 1.0
30/10:30pm 14.3 12.6 13.7 96 0.3 N 15 20 8 11 1016.8 1017.0 1.0
30/10:00pm 14.1 12.0 13.5 96 0.3 N 17 24 9 13 1017.1 1017.3 0.8
30/09:30pm 13.8 12.0 13.2 96 0.3 N 15 20 8 11 1016.9 1017.1 0.2
30/09:00pm 13.8 12.3 13.0 95 0.4 NNE 13 17 7 9 1017.2 1017.4 0.2
30/08:30pm 13.6 12.4 12.8 95 0.4 N 11 17 6 9 1017.9 1018.0 0.2
30/08:00pm 13.7 12.5 12.9 95 0.4 NNE 11 15 6 8 1018.3 1018.4 0.2
30/07:30pm 13.6 12.7 12.7 94 0.5 NE 9 11 5 6 1018.5 1018.7 0.2
30/07:00pm 13.8 13.0 12.9 94 0.5 NE 9 11 5 6 1018.4 1018.6 0.2
30/06:30pm 13.9 11.5 12.8 93 0.6 NNE 17 22 9 12 1018.4 1018.6 0.2
30/06:00pm 13.7 11.7 12.6 93 0.6 NE 15 20 8 11 1018.6 1018.8 0.2
30/05:30pm 13.7 12.0 12.6 93 0.6 NE 13 17 7 9 1018.5 1018.7 0.2
30/05:00pm 14.0 12.5 13.1 94 0.5 NE 13 19 7 10 1018.9 1019.1 0.2
30/04:30pm 14.0 12.4 12.9 93 0.6 ENE 13 20 7 11 1019.0 1019.2 0.0
30/04:00pm 14.2 12.3 12.9 92 0.7 ENE 15 20 8 11 1019.2 1019.4 0.0
30/03:30pm 14.3 12.4 12.9 91 0.8 NE 15 19 8 10 1019.4 1019.6 0.0
30/03:00pm 14.6 13.3 12.5 87 1.2 NE 11 15 6 8 1019.9 1020.1 0.0
30/02:30pm 14.7 13.5 12.7 88 1.1 NE 11 15 6 8 1020.1 1020.3 0.0
30/02:00pm 14.6 12.8 12.1 85 1.4 NE 13 20 7 11 1020.5 1020.7 0.0
30/01:30pm 14.4 12.5 11.9 85 1.4 NE 13 17 7 9 1021.0 1021.1 0.0
30/01:00pm 14.3 12.1 12.0 86 1.3 NE 15 20 8 11 1021.2 1021.4 0.0
30/12:30pm 14.3 12.8 11.8 85 1.4 NE 11 17 6 9 1021.6 1021.8 0.0
30/12:00pm 14.5 12.7 12.2 86 1.3 NE 13 19 7 10 1021.9 1022.1 0.0
30/11:30am 14.3 12.6 12.3 88 1.1 ENE 13 17 7 9 1022.5 1022.7 0.0
30/11:00am 13.9 12.2 12.5 91 0.8 ENE 13 17 7 9 1022.8 1023.0 0.0
30/10:30am 13.1 10.6 12.3 95 0.4 ENE 17 22 9 12 1022.8 1023.0 0.0
30/10:00am 12.7 10.5 12.2 97 0.3 E 15 20 8 11 1023.2 1023.4 0.0
30/09:30am 12.4 10.5 11.9 97 0.3 E 13 19 7 10 1023.2 1023.4 0.0
30/09:00am 11.9 9.1 11.4 97 0.3 ESE 17 22 9 12 1022.8 1023.0 0.2
30/08:30am 11.8 9.4 11.3 97 0.3 ESE 15 20 8 11 1022.7 1022.9 0.2
30/08:00am 11.8 10.1 11.3 97 0.3 ESE 11 15 6 8 1022.9 1023.1 0.2
30/07:30am 11.7 10.4 11.2 97 0.3 ESE 9 13 5 7 1022.6 1022.8 0.0
30/07:00am 11.2 10.3 10.7 97 0.3 ESE 6 11 3 6 1021.9 1022.1 0.0
30/06:30am 10.4 10.0 9.9 97 0.3 SE 2 7 1 4 1021.8 1022.0 0.0
30/06:00am 10.0 8.8 9.5 97 0.3 ESE 6 11 3 6 1021.3 1021.5 0.0
30/05:30am 9.8 9.7 9.3 97 0.3 CALM 0 0 0 0 1021.5 1021.7 0.0
30/05:00am 10.3 9.2 9.8 97 0.3 WNW 6 9 3 5 1021.3 1021.5 0.0
30/04:30am 9.8 8.3 9.3 97 0.3 WNW 7 9 4 5 1021.3 1021.5 0.0
30/04:00am 8.5 8.0 7.9 96 0.3 CALM 0 9 0 5 1021.2 1021.4 0.0
30/03:30am 7.5 6.8 6.8 95 0.3 CALM 0 0 0 0 1021.1 1021.2 0.0
30/03:00am 8.7 6.9 8.1 96 0.3 W 7 11 4 6 1021.2 1021.4 0.0
30/02:30am 9.5 7.6 8.9 96 0.3 WNW 9 11 5 6 1020.9 1021.0 0.0
30/02:00am 10.1 7.9 9.5 96 0.3 WNW 11 13 6 7 1020.9 1021.0 0.0
30/01:30am 10.9 9.3 10.3 96 0.3 W 9 11 5 6 1020.6 1020.8 0.0
30/01:00am 11.5 9.7 10.9 96 0.3 W 11 15 6 8 1020.9 1021.0 0.0
30/12:30am 11.0 9.5 10.4 96 0.3 WNW 9 13 5 7 1020.6 1020.8 0.0
30/12:00am 11.2 9.3 10.4 95 0.4 WNW 11 17 6 9 1020.3 1020.5 0.0
 
Date/Time
WST
Temp
°C
App
Temp
°C
Dew
Point
Rel
Hum
%
Delta-T
°C
Wind Press
QNH
hPa
Press
MSL
hPa
Rain
since 9 am
mm
Dir
 
Spd
km/h
Gust
km/h
Spd
kts
Gust
kts
29/11:30pm 11.7 10.0 11.1 96 0.3 NW 11 17 6 9 1020.2 1020.4 0.0
29/11:00pm 10.9 9.3 10.1 95 0.4 NW 9 13 5 7 1020.3 1020.5 0.0
29/10:30pm 10.8 9.1 9.9 94 0.5 NW 9 13 5 7 1020.2 1020.4 0.0
29/10:00pm 10.9 9.2 10.0 94 0.5 NW 9 13 5 7 1020.0 1020.2 0.0
29/09:30pm 11.2 9.2 10.3 94 0.5 NW 11 15 6 8 1020.0 1020.2 0.0
29/09:00pm 10.8 9.1 9.7 93 0.6 NNW 9 11 5 6 1020.0 1020.2 0.0
29/08:30pm 10.9 9.2 9.7 92 0.6 NW 9 11 5 6 1019.8 1020.0 0.0
29/08:00pm 11.8 10.8 10.2 90 0.8 NNW 6 7 3 4 1019.4 1019.6 0.0
29/07:30pm 12.7 11.3 10.9 89 1.0 NW 9 13 5 7 1019.6 1019.8 0.0
29/07:00pm 13.0 11.4 11.4 90 0.9 NW 11 13 6 7 1019.3 1019.5 0.0
29/06:30pm 11.7 10.4 9.9 89 0.9 WNW 7 9 4 5 1019.0 1019.2 0.0
29/06:00pm 12.5 11.2 10.0 85 1.3 W 7 9 4 5 1018.3 1018.4 0.0

Other Formats:

Comma delimited format used in spreadsheet applications
http://www.bom.gov.au/fwo/IDW60801/IDW60801.95636.axf

JavaScript Object Notation format (JSON) in row-major order
http://www.bom.gov.au/fwo/IDW60801/IDW60801.95636.json